createdAt,value
2017-11-09T00:02:17.193Z,19.50
2017-11-09T00:04:50.527Z,20.60
2017-11-09T00:07:18.047Z,20.80
2017-11-09T00:09:45.552Z,19.47
2017-11-09T00:12:13.840Z,20.30
2017-11-09T00:14:42.111Z,19.83
2017-11-09T00:17:10.397Z,19.47
2017-11-09T00:19:38.668Z,18.33
2017-11-09T00:22:06.989Z,21.30
2017-11-09T00:24:34.494Z,22.63
2017-11-09T00:27:02.021Z,21.00
2017-11-09T00:29:29.541Z,20.60
2017-11-09T00:31:57.066Z,21.27
2017-11-09T00:34:25.356Z,23.27
2017-11-09T00:36:53.629Z,21.70
2017-11-09T00:39:21.913Z,24.17
2017-11-09T00:41:50.185Z,23.37
2017-11-09T00:44:18.488Z,20.67
2017-11-09T00:46:46.001Z,17.70
2017-11-09T00:49:13.509Z,17.93
2017-11-09T00:51:41.029Z,20.03
2017-11-09T00:54:09.300Z,19.23
2017-11-09T00:56:37.583Z,22.77
2017-11-09T00:59:05.852Z,20.70
2017-11-09T01:01:34.140Z,23.73
2017-11-09T01:04:02.409Z,20.43
2017-11-09T01:06:30.700Z,20.57
2017-11-09T01:08:58.204Z,22.00
2017-11-09T01:11:25.707Z,21.47
2017-11-09T01:13:53.988Z,23.13
2017-11-09T01:16:21.496Z,21.90
2017-11-09T01:18:49.015Z,20.80
2017-11-09T01:21:16.521Z,22.23
2017-11-09T01:23:44.037Z,22.67
2017-11-09T01:26:11.539Z,22.27
2017-11-09T01:28:39.068Z,22.90
2017-11-09T01:31:06.572Z,21.70
2017-11-09T01:33:34.848Z,21.87
2017-11-09T01:36:02.376Z,18.63
2017-11-09T01:38:29.881Z,21.40
2017-11-09T01:40:58.169Z,21.80
2017-11-09T01:43:25.670Z,20.03
2017-11-09T01:45:53.187Z,20.63
2017-11-09T01:48:20.699Z,20.23
2017-11-09T01:50:48.251Z,21.17
2017-11-09T01:53:15.773Z,18.50
2017-11-09T01:55:43.276Z,21.60
2017-11-09T01:58:10.806Z,19.93
2017-11-09T02:00:38.303Z,20.67
2017-11-09T02:03:05.828Z,19.97
2017-11-09T02:05:33.332Z,19.90
2017-11-09T02:08:01.621Z,19.97
2017-11-09T02:10:29.128Z,21.03
2017-11-09T02:12:56.879Z,19.50
2017-11-09T02:15:24.384Z,21.00
2017-11-09T02:17:52.656Z,21.60
2017-11-09T02:20:20.945Z,21.27
2017-11-09T02:22:49.216Z,21.17
2017-11-09T02:25:17.507Z,22.13
2017-11-09T02:27:45.012Z,21.97
2017-11-09T02:30:12.533Z,21.20
2017-11-09T02:32:40.036Z,21.40
2017-11-09T02:35:07.552Z,17.43
2017-11-09T02:37:35.057Z,18.93
2017-11-09T02:40:02.556Z,20.13
2017-11-09T02:42:30.076Z,18.23
2017-11-09T02:44:57.584Z,19.90
2017-11-09T02:47:25.107Z,20.50
2017-11-09T02:49:53.389Z,20.53
2017-11-09T02:52:21.676Z,21.60
2017-11-09T02:54:49.956Z,20.70
2017-11-09T02:57:17.504Z,20.27
2017-11-09T02:59:45.775Z,20.17
2017-11-09T03:02:14.061Z,18.30
2017-11-09T03:04:42.322Z,19.80
2017-11-09T03:07:10.586Z,19.83
2017-11-09T03:09:38.111Z,19.00
2017-11-09T03:12:05.613Z,21.00
2017-11-09T03:14:33.908Z,21.63
2017-11-09T03:17:02.177Z,19.90
2017-11-09T03:19:30.468Z,21.30
2017-11-09T03:21:57.997Z,21.80
2017-11-09T03:24:26.288Z,22.33
2017-11-09T03:26:54.560Z,23.37
2017-11-09T03:29:22.878Z,21.67
2017-11-09T03:31:50.385Z,22.17
2017-11-09T03:34:17.888Z,20.67
2017-11-09T03:36:45.403Z,21.60
2017-11-09T03:39:12.905Z,22.13
2017-11-09T03:41:40.424Z,20.40
2017-11-09T03:44:08.692Z,20.20
2017-11-09T03:46:36.217Z,22.53
2017-11-09T03:49:03.721Z,20.40
2017-11-09T03:51:32.005Z,19.17
2017-11-09T03:54:00.272Z,19.83
2017-11-09T03:56:28.588Z,19.70
2017-11-09T03:58:56.097Z,20.13
2017-11-09T04:01:24.368Z,20.13
2017-11-09T04:03:51.893Z,20.93
2017-11-09T04:06:19.395Z,20.97
2017-11-09T04:08:47.684Z,20.07
2017-11-09T04:11:15.953Z,19.63
2017-11-09T04:13:44.237Z,18.77
2017-11-09T04:16:12.504Z,18.17
2017-11-09T04:18:40.789Z,17.33
2017-11-09T04:21:08.296Z,18.47
2017-11-09T04:23:35.820Z,19.80
2017-11-09T04:26:03.330Z,16.83
2017-11-09T04:28:30.833Z,18.23
2017-11-09T04:30:58.360Z,20.13
2017-11-09T04:33:25.859Z,19.33
2017-11-09T04:35:53.376Z,18.40
2017-11-09T04:38:21.192Z,18.03
2017-11-09T04:40:48.760Z,17.70
2017-11-09T04:43:16.260Z,18.77
2017-11-09T04:45:44.549Z,19.03
2017-11-09T04:48:12.818Z,18.07
2017-11-09T04:50:41.090Z,17.60
2017-11-09T04:53:09.381Z,18.43
2017-11-09T04:55:37.652Z,16.60
2017-11-09T04:58:05.937Z,18.27
2017-11-09T05:00:33.440Z,18.97
2017-11-09T05:03:00.969Z,17.70
2017-11-09T05:05:28.474Z,16.80
2017-11-09T05:07:55.992Z,20.23
2017-11-09T05:10:23.496Z,20.20
2017-11-09T05:12:51.056Z,19.47
2017-11-09T05:15:18.566Z,20.67
2017-11-09T05:17:46.084Z,18.33
2017-11-09T05:20:14.368Z,18.90
2017-11-09T05:22:42.639Z,20.20
2017-11-09T05:25:10.931Z,20.40
2017-11-09T05:27:38.432Z,19.50
2017-11-09T05:30:05.953Z,20.23
2017-11-09T05:32:33.465Z,19.00
2017-11-09T05:35:00.988Z,20.07
2017-11-09T05:37:28.491Z,19.07
2017-11-09T05:39:56.016Z,18.67
2017-11-09T05:42:23.516Z,20.30
2017-11-09T05:44:51.788Z,18.60
2017-11-09T05:47:19.308Z,20.00
2017-11-09T05:49:46.812Z,20.33
2017-11-09T05:52:15.101Z,21.67
2017-11-09T05:54:43.373Z,20.17
2017-11-09T05:57:11.656Z,19.00
2017-11-09T05:59:39.929Z,21.07
2017-11-09T06:02:07.460Z,20.60
2017-11-09T06:04:34.973Z,19.93
2017-11-09T06:07:02.521Z,17.67
2017-11-09T06:09:30.028Z,19.47
2017-11-09T06:11:57.528Z,21.73
2017-11-09T06:14:25.050Z,21.50
2017-11-09T06:16:52.560Z,21.73
2017-11-09T06:19:20.072Z,20.60
2017-11-09T06:21:47.577Z,22.00
2017-11-09T06:24:15.096Z,19.70
2017-11-09T06:26:43.368Z,18.60
2017-11-09T06:29:11.659Z,22.10
2017-11-09T06:31:39.928Z,18.63
2017-11-09T06:34:08.245Z,18.83
2017-11-09T06:36:35.744Z,19.57
2017-11-09T06:39:03.245Z,19.80
2017-11-09T06:41:30.765Z,19.10
2017-11-09T06:43:58.273Z,20.40
2017-11-09T06:46:25.796Z,20.43
2017-11-09T06:48:54.076Z,20.70
2017-11-09T06:51:22.364Z,19.70
2017-11-09T06:53:49.872Z,20.53
2017-11-09T06:56:17.420Z,19.40
2017-11-09T06:58:44.928Z,18.53
2017-11-09T07:01:13.204Z,17.50
2017-11-09T07:03:41.493Z,18.33
2017-11-09T07:06:09.009Z,17.73
2017-11-09T07:08:36.532Z,18.60
2017-11-09T07:11:04.038Z,16.40
2017-11-09T07:13:32.341Z,14.80
2017-11-09T07:15:59.847Z,15.23
2017-11-09T07:18:27.392Z,17.33
2017-11-09T07:20:54.901Z,16.70
2017-11-09T07:23:23.172Z,16.57
2017-11-09T07:25:51.464Z,16.77
2017-11-09T07:28:18.968Z,19.10
2017-11-09T07:30:46.494Z,19.90
2017-11-09T07:33:14.004Z,19.37
2017-11-09T07:35:41.530Z,18.80
2017-11-09T07:38:09.049Z,17.57
2017-11-09T07:40:37.364Z,19.43
2017-11-09T07:43:04.868Z,17.70
2017-11-09T07:45:32.373Z,18.93
2017-11-09T07:47:59.906Z,18.60
2017-11-09T07:50:27.421Z,18.57
2017-11-09T07:52:54.945Z,22.47
2017-11-09T07:55:22.449Z,20.40
2017-11-09T07:57:49.972Z,19.23
2017-11-09T08:00:17.482Z,19.23
2017-11-09T08:02:45.800Z,18.47
2017-11-09T08:05:13.306Z,17.33
2017-11-09T08:07:41.587Z,16.90
2017-11-09T08:10:09.136Z,17.43
2017-11-09T08:12:36.644Z,19.50
2017-11-09T08:15:04.169Z,19.60
2017-11-09T08:17:32.447Z,16.43
2017-11-09T08:20:00.745Z,17.50
2017-11-09T08:22:28.257Z,18.80
2017-11-09T08:24:57.164Z,14.87
2017-11-09T08:27:26.595Z,19.73
2017-11-09T08:29:54.621Z,16.00
2017-11-09T08:32:23.616Z,16.43
2017-11-09T08:34:51.130Z,14.03
2017-11-09T08:37:19.829Z,16.50
2017-11-09T08:39:48.476Z,17.03
2017-11-09T08:42:16.769Z,17.87
2017-11-09T08:44:44.560Z,17.87
2017-11-09T09:30:53.553Z,14.87
2017-11-09T09:33:21.600Z,15.87
2017-11-09T09:35:58.768Z,13.37
2017-11-09T09:38:37.875Z,14.90
2017-11-09T09:41:05.382Z,15.23
2017-11-09T09:43:32.912Z,13.80
2017-11-09T09:46:00.418Z,12.20
2017-11-09T09:48:27.976Z,13.27
2017-11-09T09:50:55.484Z,12.63
2017-11-09T09:53:22.993Z,12.83
2017-11-09T09:55:50.517Z,11.80
2017-11-09T09:58:18.788Z,13.00
2017-11-09T10:00:47.082Z,12.63
2017-11-09T10:03:14.585Z,15.97
2017-11-09T10:05:42.124Z,10.80
2017-11-09T10:08:09.635Z,10.50
2017-11-09T10:10:37.920Z,10.70
2017-11-09T10:13:06.188Z,15.03
2017-11-09T10:15:34.502Z,14.93
2017-11-09T10:18:02.008Z,13.20
2017-11-09T10:20:29.516Z,14.23
2017-11-09T10:22:57.040Z,12.57
2017-11-09T10:25:25.317Z,13.60
2017-11-09T10:27:53.613Z,18.90
2017-11-09T10:30:21.124Z,25.07
2017-11-09T10:32:48.644Z,16.80
2017-11-09T10:35:16.150Z,18.47
2017-11-09T10:37:43.734Z,15.70
2017-11-09T10:40:12.005Z,14.30
2017-11-09T10:42:40.281Z,14.83
2017-11-09T10:45:08.584Z,15.37
2017-11-09T10:47:36.101Z,14.93
2017-11-09T10:50:03.631Z,14.80
2017-11-09T10:52:31.140Z,15.27
2017-11-09T10:54:58.669Z,15.80
2017-11-09T10:57:26.185Z,13.87
2017-11-09T10:59:53.731Z,15.13
2017-11-09T11:02:21.237Z,25.53
2017-11-09T11:04:48.750Z,12.40
2017-11-09T11:07:16.281Z,13.93
2017-11-09T11:09:44.560Z,12.57
2017-11-09T11:12:12.849Z,12.47
2017-11-09T11:14:40.373Z,10.33
2017-11-09T11:17:07.901Z,11.70
2017-11-09T11:19:35.417Z,10.80
2017-11-09T11:22:06.528Z,13.20
2017-11-09T11:24:34.044Z,13.20
2017-11-09T11:27:01.572Z,10.77
2017-11-09T11:29:29.107Z,13.23
2017-11-09T11:31:56.625Z,18.10
2017-11-09T11:34:24.149Z,10.63
2017-11-09T11:36:52.430Z,10.97
2017-11-09T11:39:19.953Z,9.70
2017-11-09T11:41:47.457Z,8.63
2017-11-09T11:44:14.981Z,9.47
2017-11-09T11:46:43.400Z,10.33
2017-11-09T11:49:10.926Z,9.50
2017-11-09T11:51:39.208Z,9.27
2017-11-09T11:54:07.521Z,10.40
2017-11-09T11:56:35.028Z,10.03
2017-11-09T11:59:02.528Z,11.50
2017-11-09T12:01:30.053Z,25.60
2017-11-09T12:03:58.324Z,26.50
2017-11-09T12:06:26.619Z,24.73
2017-11-09T12:08:54.892Z,47.80
2017-11-09T12:11:23.185Z,16.80
2017-11-09T12:13:50.699Z,15.43
2017-11-09T12:16:19.030Z,14.47
2017-11-09T12:18:46.548Z,13.33
2017-11-09T12:21:14.824Z,28.13
2017-11-09T12:23:43.117Z,18.33
2017-11-09T12:26:10.628Z,17.53
2017-11-09T12:28:38.176Z,24.23
2017-11-09T12:31:05.689Z,20.07
2017-11-09T12:33:33.982Z,17.80
2017-11-09T12:36:01.506Z,16.70
2017-11-09T12:38:29.805Z,15.10
2017-11-09T12:40:57.312Z,16.17
2017-11-09T12:43:24.845Z,14.63
2017-11-09T12:45:52.356Z,18.80
2017-11-09T12:48:20.640Z,16.53
2017-11-09T12:50:48.932Z,16.80
2017-11-09T12:53:16.436Z,17.00
2017-11-09T12:55:43.964Z,15.50
2017-11-09T12:58:11.475Z,15.70
2017-11-09T13:00:39.002Z,14.80
2017-11-09T13:03:06.508Z,14.40
2017-11-09T13:05:34.805Z,14.73
2017-11-09T13:08:02.320Z,14.47
2017-11-09T13:10:29.864Z,14.00
2017-11-09T13:12:57.368Z,16.40
2017-11-09T13:15:25.640Z,14.13
2017-11-09T13:17:53.180Z,14.67
2017-11-09T13:20:21.469Z,13.83
2017-11-09T13:22:49.756Z,13.10
2017-11-09T13:25:18.030Z,15.20
2017-11-09T13:27:46.321Z,14.60
2017-11-09T13:30:13.828Z,16.80
2017-11-09T13:32:42.128Z,14.73
2017-11-09T13:35:10.416Z,14.77
2017-11-09T13:37:38.696Z,15.23
2017-11-09T13:40:06.988Z,14.20
2017-11-09T13:42:34.496Z,15.40
2017-11-09T13:45:02.025Z,15.20
2017-11-09T13:47:29.533Z,14.27
2017-11-09T13:49:57.813Z,16.30
2017-11-09T13:52:26.105Z,15.50
2017-11-09T13:54:54.555Z,15.43
2017-11-09T13:57:22.847Z,15.10
2017-11-09T13:59:51.124Z,14.80
2017-11-09T14:02:19.421Z,16.90
2017-11-09T14:04:46.929Z,16.00
2017-11-09T14:07:14.449Z,16.97
2017-11-09T14:09:41.948Z,16.80
2017-11-09T14:12:09.475Z,15.10
2017-11-09T14:14:36.985Z,15.47
2017-11-09T14:17:05.272Z,15.00
2017-11-09T14:19:33.549Z,14.60
2017-11-09T14:22:01.837Z,17.80
2017-11-09T14:24:29.342Z,16.27
2017-11-09T14:26:56.867Z,16.10
2017-11-09T14:29:24.377Z,16.80
2017-11-09T14:31:51.932Z,16.50
2017-11-09T14:34:19.451Z,17.00
2017-11-09T14:36:47.746Z,17.87
2017-11-09T14:39:15.276Z,16.90
2017-11-09T14:41:42.788Z,17.07
2017-11-09T14:44:10.312Z,16.90
2017-11-09T14:46:37.816Z,18.13
2017-11-09T14:49:06.109Z,18.90
2017-11-09T14:51:33.619Z,19.00
2017-11-09T14:54:01.144Z,19.90
2017-11-09T14:56:28.653Z,20.60
2017-11-09T14:58:56.948Z,19.97
2017-11-09T15:01:25.225Z,19.80
2017-11-09T15:03:53.516Z,18.40
2017-11-09T15:06:21.032Z,17.30
2017-11-09T15:08:48.557Z,17.40
2017-11-09T15:11:16.063Z,16.90
2017-11-09T15:13:44.356Z,18.80
2017-11-09T15:16:12.627Z,16.43
2017-11-09T15:18:46.724Z,19.27
2017-11-09T15:21:15.007Z,18.67
2017-11-09T15:23:43.297Z,18.43
2017-11-09T15:26:11.571Z,18.47
2017-11-09T15:28:39.857Z,16.97
2017-11-09T15:31:07.739Z,18.47
2017-11-09T15:33:35.297Z,18.87
2017-11-09T15:36:08.432Z,18.43
2017-11-09T15:38:35.983Z,17.37
2017-11-09T15:41:03.488Z,17.13
2017-11-09T15:43:31.000Z,16.20
2017-11-09T15:45:58.523Z,16.20
2017-11-09T15:48:26.033Z,16.40
2017-11-09T15:50:53.557Z,15.70
2017-11-09T15:53:21.065Z,16.00
2017-11-09T15:55:49.357Z,16.53
2017-11-09T15:58:16.870Z,15.93
2017-11-09T16:00:44.388Z,15.77
2017-11-09T16:03:11.900Z,16.03
2017-11-09T16:05:39.419Z,15.67
2017-11-09T16:08:06.924Z,15.93
2017-11-09T16:10:35.220Z,16.53
2017-11-09T16:13:03.560Z,14.20
2017-11-09T16:15:31.106Z,16.00
2017-11-09T16:17:58.612Z,15.27
2017-11-09T16:20:26.145Z,15.40
2017-11-09T16:22:53.657Z,14.83
2017-11-09T16:25:21.184Z,16.43
2017-11-09T16:27:49.462Z,15.97
2017-11-09T16:30:16.985Z,16.03
2017-11-09T16:32:44.492Z,15.03
2017-11-09T16:35:12.037Z,14.57
2017-11-09T16:37:40.309Z,15.80
2017-11-09T16:40:07.815Z,19.30
2017-11-09T16:42:37.297Z,34.20
2017-11-09T16:45:04.800Z,17.07
2017-11-09T16:47:32.321Z,16.40
2017-11-09T16:49:59.833Z,14.37
2017-11-09T16:52:28.122Z,15.20
2017-11-09T16:54:56.401Z,14.20
2017-11-09T16:57:23.929Z,14.60
2017-11-09T16:59:51.437Z,13.97
2017-11-09T17:02:18.960Z,13.50
2017-11-09T17:04:47.239Z,14.10
2017-11-09T17:07:16.490Z,14.10
2017-11-09T17:09:43.996Z,13.83
2017-11-09T17:12:12.289Z,15.40
2017-11-09T17:14:39.800Z,15.17
2017-11-09T17:17:07.316Z,15.60
2017-11-09T17:19:34.838Z,14.40
2017-11-09T17:22:03.129Z,15.50
2017-11-09T17:24:31.434Z,14.95
2017-11-09T17:26:58.956Z,15.33
2017-11-09T17:29:27.228Z,15.23
2017-11-09T17:31:55.517Z,14.90
2017-11-09T17:34:23.792Z,15.43
2017-11-09T17:36:51.324Z,14.23
2017-11-09T17:39:18.841Z,16.17
2017-11-09T17:41:46.343Z,15.13
2017-11-09T17:44:13.866Z,13.60
2017-11-09T17:46:41.372Z,13.67
2017-11-09T17:49:09.668Z,14.90
2017-11-09T17:51:37.957Z,15.23
2017-11-09T17:54:05.489Z,14.40
2017-11-09T17:56:33.760Z,15.40
2017-11-09T17:59:02.052Z,17.50
2017-11-09T18:01:29.556Z,16.87
2017-11-09T18:03:57.076Z,17.80
2017-11-09T18:06:24.584Z,43.07
2017-11-09T18:08:52.119Z,46.50
2017-11-09T18:11:19.625Z,42.30
2017-11-09T18:13:47.920Z,22.73
2017-11-09T18:16:15.424Z,15.37
2017-11-09T18:18:42.944Z,20.40
2017-11-09T18:21:10.459Z,16.03
2017-11-09T18:23:37.988Z,19.63
2017-11-09T18:26:05.496Z,21.17
2017-11-09T18:28:33.775Z,23.07
2017-11-09T18:31:02.045Z,18.10
2017-11-09T18:33:30.372Z,15.37
2017-11-09T18:35:57.880Z,53.63
2017-11-09T18:38:26.175Z,24.70
2017-11-09T18:40:53.676Z,26.27
2017-11-09T18:43:21.206Z,34.80
2017-11-09T18:45:48.726Z,39.53
2017-11-09T18:48:17.004Z,24.33
2017-11-09T18:50:45.288Z,24.07
2017-11-09T18:53:13.560Z,27.67
2017-11-09T18:55:41.839Z,48.60
2017-11-09T18:58:10.108Z,37.27
2017-11-09T19:00:38.409Z,41.23
2017-11-09T19:03:05.920Z,28.33
2017-11-09T19:05:33.436Z,23.77
2017-11-09T19:08:00.940Z,24.40
2017-11-09T19:10:28.461Z,27.47
2017-11-09T19:12:55.968Z,23.77
2017-11-09T19:15:23.487Z,11.13
2017-11-09T19:17:50.994Z,11.50
2017-11-09T19:20:19.280Z,12.17
2017-11-09T19:22:47.546Z,12.87
2017-11-09T19:25:15.844Z,18.00
2017-11-09T19:27:43.350Z,16.27
2017-11-09T19:30:10.872Z,15.40
2017-11-09T19:32:38.379Z,12.30
2017-11-09T19:35:05.895Z,13.27
2017-11-09T19:37:33.396Z,12.90
2017-11-09T19:40:00.917Z,12.90
2017-11-09T19:42:28.421Z,13.60
2017-11-09T19:44:55.939Z,13.80
2017-11-09T19:47:23.445Z,13.83
2017-11-09T19:49:51.732Z,13.17
2017-11-09T19:52:20.003Z,13.87
2017-11-09T19:54:48.291Z,15.97
2017-11-09T19:57:15.796Z,14.40
2017-11-09T19:59:43.316Z,14.77
2017-11-09T20:02:10.830Z,13.23
2017-11-09T20:04:38.384Z,14.77
2017-11-09T20:07:05.888Z,14.77
2017-11-09T20:09:33.396Z,15.03
2017-11-09T20:12:00.934Z,14.23
2017-11-09T20:14:28.440Z,13.90
2017-11-09T20:16:56.724Z,12.53
2017-11-09T20:19:24.991Z,13.33
2017-11-09T20:21:53.281Z,13.70
2017-11-09T20:24:20.784Z,14.63
2017-11-09T20:26:48.304Z,13.90
2017-11-09T20:29:15.818Z,14.13
2017-11-09T20:31:43.353Z,14.00
2017-11-09T20:34:11.625Z,13.20
2017-11-09T20:36:39.150Z,14.40
2017-11-09T20:39:06.665Z,15.33
2017-11-09T20:41:34.204Z,16.03
2017-11-09T20:44:01.720Z,16.80
2017-11-09T20:46:29.994Z,15.93
2017-11-09T20:48:58.277Z,16.67
2017-11-09T20:51:25.780Z,15.97
2017-11-09T20:53:53.303Z,16.90
2017-11-09T20:56:20.804Z,14.83
2017-11-09T20:58:48.337Z,16.50
2017-11-09T21:01:15.841Z,17.07
2017-11-09T21:03:43.365Z,15.20
2017-11-09T21:06:11.636Z,17.53
2017-11-09T21:08:39.156Z,15.80
2017-11-09T21:11:07.425Z,17.27
2017-11-09T21:13:35.723Z,15.57
2017-11-09T21:16:03.232Z,16.30
2017-11-09T21:18:30.756Z,16.23
2017-11-09T21:20:58.260Z,17.30
2017-11-09T21:23:25.800Z,15.40
2017-11-09T21:25:53.324Z,17.40
2017-11-09T21:28:20.845Z,18.57
2017-11-09T21:30:49.118Z,18.93
2017-11-09T21:33:17.408Z,19.67
2017-11-09T21:35:45.689Z,20.50
2017-11-09T21:38:13.212Z,18.00
2017-11-09T21:40:40.721Z,20.03
2017-11-09T21:43:08.240Z,18.30
2017-11-09T21:45:35.740Z,17.53
2017-11-09T21:48:03.283Z,18.50
2017-11-09T21:50:30.787Z,17.60
2017-11-09T21:52:58.285Z,18.83
2017-11-09T21:55:26.571Z,19.47
2017-11-09T21:57:54.086Z,19.90
2017-11-09T22:00:21.610Z,17.60
2017-11-09T22:02:49.116Z,18.13
2017-11-09T22:05:16.633Z,19.80
2017-11-09T22:07:44.141Z,18.10
2017-11-09T22:10:12.439Z,17.80
2017-11-09T22:12:39.947Z,18.20
2017-11-09T22:15:07.476Z,19.73
2017-11-09T22:17:34.986Z,20.23
2017-11-09T22:20:02.508Z,19.00
2017-11-09T22:22:30.013Z,19.60
2017-11-09T22:24:58.303Z,18.17
2017-11-09T22:27:26.571Z,17.77
2017-11-09T22:29:54.852Z,18.90
2017-11-09T22:32:23.629Z,19.10
2017-11-09T22:34:51.919Z,18.07
2017-11-09T22:37:19.427Z,19.20
2017-11-09T22:39:46.968Z,18.10
2017-11-09T22:42:14.473Z,19.00
2017-11-09T22:44:43.540Z,17.50
2017-11-09T22:47:11.057Z,17.10
2017-11-09T22:49:38.580Z,18.40
2017-11-09T22:52:06.101Z,19.23
2017-11-09T22:54:33.613Z,18.00
2017-11-09T22:57:01.901Z,17.93
2017-11-09T22:59:29.411Z,20.10
2017-11-09T23:01:57.700Z,19.43
2017-11-09T23:04:25.209Z,19.70
2017-11-09T23:06:52.757Z,16.50
2017-11-09T23:09:20.257Z,17.77
2017-11-09T23:11:47.756Z,18.63
2017-11-09T23:14:16.049Z,17.43
2017-11-09T23:16:43.548Z,18.17
2017-11-09T23:19:11.072Z,17.63
2017-11-09T23:21:38.580Z,17.87
2017-11-09T23:24:06.099Z,17.30
2017-11-09T23:26:33.604Z,16.47
2017-11-09T23:29:01.128Z,17.87
2017-11-09T23:31:28.636Z,16.40
2017-11-09T23:33:56.929Z,18.40
2017-11-09T23:36:24.432Z,17.60
2017-11-09T23:38:52.715Z,18.60
2017-11-09T23:41:20.220Z,16.93
2017-11-09T23:43:47.741Z,18.50
2017-11-09T23:46:15.243Z,16.37
2017-11-09T23:48:42.756Z,16.17
2017-11-09T23:51:10.255Z,18.10
2017-11-09T23:53:37.768Z,17.17
2017-11-09T23:56:05.272Z,17.97
2017-11-09T23:58:32.793Z,18.27
